Time;durP1;ratioP1;P1;durP2;ratioP2;P2;SDS_P1;SDS_P2;PMS_P1;PMS_P2;Temp;Humidity;BMP_temperature;BMP_pressure;BME280_temperature;BME280_humidity;BME280_pressure;Samples;Min_cycle;Max_cycle;Signal;HPM_P1;HPM_P2
2022/01/10 00:00:12;;;;;;;9.40;5.03;;;16.40;44.00;;;;;;5095045;28;20017;-63
2022/01/10 00:02:37;;;;;;;10.38;4.55;;;16.40;43.90;;;;;;5093553;28;20016;-63
2022/01/10 00:05:04;;;;;;;9.90;4.57;;;16.40;43.80;;;;;;5093963;28;20020;-64
2022/01/10 00:07:30;;;;;;;7.25;4.50;;;16.40;43.80;;;;;;5093578;28;20162;-62
2022/01/10 00:09:55;;;;;;;7.47;4.22;;;16.50;43.80;;;;;;5093682;28;20550;-62
2022/01/10 00:12:21;;;;;;;7.35;4.80;;;16.50;43.70;;;;;;5093569;28;20043;-64
2022/01/10 00:14:49;;;;;;;10.25;5.15;;;16.50;43.50;;;;;;5093928;28;20024;-62
2022/01/10 00:17:15;;;;;;;7.47;4.95;;;16.60;43.50;;;;;;5093768;28;20027;-63
2022/01/10 00:19:44;;;;;;;9.05;4.80;;;16.60;43.50;;;;;;5093628;28;20031;-63
2022/01/10 00:22:11;;;;;;;8.48;4.68;;;16.60;43.40;;;;;;5093497;28;20016;-63
2022/01/10 00:24:37;;;;;;;8.18;4.55;;;16.60;43.40;;;;;;5093282;28;20020;-64
2022/01/10 00:27:03;;;;;;;8.27;5.18;;;16.60;43.30;;;;;;5093597;28;20032;-64
2022/01/10 00:29:29;;;;;;;7.75;4.80;;;16.60;43.30;;;;;;5093711;28;20056;-62
2022/01/10 00:31:59;;;;;;;9.15;4.57;;;16.60;43.20;;;;;;5095098;28;20020;-63
2022/01/10 00:34:25;;;;;;;8.68;4.68;;;16.70;43.20;;;;;;5094752;28;20022;-63
2022/01/10 00:36:52;;;;;;;8.45;4.80;;;16.70;43.10;;;;;;5093903;28;20099;-64
2022/01/10 00:39:18;;;;;;;11.48;5.22;;;16.70;43.10;;;;;;5093267;28;20124;-64
2022/01/10 00:41:45;;;;;;;7.82;4.68;;;16.70;43.30;;;;;;5093372;28;20071;-65
2022/01/10 00:44:12;;;;;;;8.88;4.72;;;16.70;43.00;;;;;;5076119;28;20020;-63
2022/01/10 00:46:37;;;;;;;7.30;4.60;;;16.70;43.00;;;;;;5093388;28;20017;-63
2022/01/10 00:49:03;;;;;;;10.55;5.25;;;16.70;42.90;;;;;;5093488;28;20099;-63
2022/01/10 00:51:30;;;;;;;9.80;5.05;;;16.70;42.90;;;;;;5093382;28;20049;-63
2022/01/10 00:53:56;;;;;;;7.70;4.85;;;16.80;42.90;;;;;;5093268;28;20028;-63
2022/01/10 00:56:21;;;;;;;9.10;5.10;;;16.70;42.80;;;;;;5093146;28;20485;-63
2022/01/10 00:58:47;;;;;;;10.35;5.05;;;16.80;42.80;;;;;;5093241;28;20035;-64
2022/01/10 01:01:14;;;;;;;9.18;5.03;;;16.80;42.80;;;;;;5093506;28;20467;-63
2022/01/10 01:03:40;;;;;;;7.63;4.70;;;16.80;42.70;;;;;;5093313;28;20008;-63
2022/01/10 01:06:06;;;;;;;8.15;4.78;;;16.80;42.60;;;;;;5093024;28;20027;-63
2022/01/10 01:08:34;;;;;;;9.43;5.47;;;16.80;42.60;;;;;;5093103;28;20028;-64
2022/01/10 01:13:49;;;;;;;8.75;4.72;;;16.80;42.60;;;;;;5093482;28;20048;-62
2022/01/10 01:16:31;;;;;;;8.20;4.80;;;16.90;42.60;;;;;;5093366;28;20120;-64
2022/01/10 01:24:08;;;;;;;12.05;5.13;;;16.90;42.50;;;;;;5097408;28;20111;-63
2022/01/10 01:26:41;;;;;;;10.68;4.93;;;16.80;42.50;;;;;;5096983;28;20027;-64
2022/01/10 01:29:09;;;;;;;8.85;4.88;;;16.80;42.50;;;;;;5097193;28;20019;-64
2022/01/10 01:31:35;;;;;;;7.97;4.97;;;16.80;42.40;;;;;;5095311;28;20085;-65
2022/01/10 01:34:01;;;;;;;9.07;4.82;;;16.90;42.50;;;;;;5097064;28;20087;-64
2022/01/10 01:36:30;;;;;;;9.13;4.93;;;16.90;42.50;;;;;;5096845;28;20095;-65
2022/01/10 01:38:56;;;;;;;10.40;5.07;;;16.90;42.40;;;;;;5096858;28;20553;-65
2022/01/10 01:43:52;;;;;;;7.55;4.75;;;16.90;42.40;;;;;;5096417;28;20028;-65
2022/01/10 01:46:19;;;;;;;8.23;4.63;;;16.90;42.40;;;;;;5096094;28;20016;-63
2022/01/10 01:48:45;;;;;;;8.00;4.35;;;16.90;42.40;;;;;;5095995;28;20028;-65
2022/01/10 01:51:11;;;;;;;8.25;4.97;;;16.90;42.30;;;;;;5095643;28;20459;-65
2022/01/10 01:53:37;;;;;;;8.55;4.68;;;16.90;42.40;;;;;;5095959;28;20044;-63
2022/01/10 01:56:04;;;;;;;8.90;4.72;;;16.90;42.40;;;;;;5095533;28;20076;-65
2022/01/10 01:58:30;;;;;;;8.77;4.68;;;16.80;42.40;;;;;;5095876;28;20028;-65
2022/01/10 02:00:56;;;;;;;7.50;4.68;;;16.80;42.50;;;;;;5095981;28;20012;-64
2022/01/10 02:03:23;;;;;;;8.20;4.63;;;16.80;42.60;;;;;;5095797;28;20012;-64
2022/01/10 02:05:50;;;;;;;9.77;4.78;;;16.70;42.70;;;;;;5095607;28;20046;-65
2022/01/10 02:08:16;;;;;;;8.48;4.28;;;16.70;42.80;;;;;;5095496;28;20047;-64
2022/01/10 02:10:43;;;;;;;7.20;4.20;;;16.60;42.80;;;;;;5095418;28;20056;-64
2022/01/10 02:13:10;;;;;;;8.65;4.80;;;16.60;42.90;;;;;;5094595;28;20024;-65
2022/01/10 02:15:47;;;;;;;8.60;4.53;;;16.50;43.10;;;;;;5095535;28;20054;-64
2022/01/10 02:18:14;;;;;;;12.13;4.50;;;16.40;43.30;;;;;;5096386;28;20081;-65
2022/01/10 02:20:41;;;;;;;7.00;4.22;;;16.40;43.40;;;;;;5096298;28;20013;-65
2022/01/10 02:23:07;;;;;;;9.65;5.53;;;16.30;43.50;;;;;;5095598;28;20016;-65
2022/01/10 02:25:33;;;;;;;8.82;4.60;;;16.20;43.70;;;;;;5095248;28;20046;-65
2022/01/10 02:28:00;;;;;;;10.40;5.57;;;16.10;43.80;;;;;;5095150;28;20023;-65
2022/01/10 02:30:26;;;;;;;7.53;4.65;;;16.20;44.00;;;;;;5093779;28;20036;-66
2022/01/10 02:32:52;;;;;;;7.72;4.70;;;16.10;44.00;;;;;;5095033;28;20024;-66
2022/01/10 02:35:23;;;;;;;8.80;4.55;;;16.10;44.00;;;;;;5094825;28;20016;-66
2022/01/10 02:37:51;;;;;;;8.93;5.03;;;16.00;44.10;;;;;;5094985;28;20008;-65
2022/01/10 02:40:19;;;;;;;7.22;4.32;;;16.10;44.20;;;;;;5095034;28;20022;-66
2022/01/10 02:42:45;;;;;;;8.77;4.93;;;16.00;44.10;;;;;;5095007;28;20040;-66
2022/01/10 02:45:10;;;;;;;8.27;4.97;;;15.90;44.30;;;;;;5093667;28;20013;-66
2022/01/10 02:47:41;;;;;;;8.27;4.75;;;15.90;44.40;;;;;;5094931;28;20074;-66
2022/01/10 02:50:07;;;;;;;8.02;4.88;;;15.90;44.50;;;;;;5094682;28;20020;-64
2022/01/10 02:52:36;;;;;;;7.95;5.00;;;15.90;44.50;;;;;;5094899;28;20023;-65
2022/01/10 02:55:02;;;;;;;9.57;5.13;;;15.80;44.60;;;;;;5095306;28;20020;-64
2022/01/10 02:57:28;;;;;;;8.25;4.88;;;15.80;44.50;;;;;;5095198;28;20048;-64
2022/01/10 02:59:55;;;;;;;9.18;4.25;;;15.80;44.60;;;;;;5094554;28;20103;-65
2022/01/10 03:02:26;;;;;;;10.00;5.03;;;15.80;44.60;;;;;;5095101;28;20016;-66
2022/01/10 03:04:52;;;;;;;7.65;4.60;;;15.80;44.60;;;;;;5095100;28;20067;-66
2022/01/10 03:07:18;;;;;;;7.22;4.65;;;15.80;44.60;;;;;;5094692;28;20044;-65
2022/01/10 03:09:44;;;;;;;10.52;5.05;;;15.80;44.70;;;;;;5094409;28;20059;-66
2022/01/10 03:12:11;;;;;;;10.95;4.85;;;15.80;44.70;;;;;;5093660;28;20031;-65
2022/01/10 03:14:38;;;;;;;8.95;5.00;;;15.80;44.60;;;;;;5093521;28;20022;-65
2022/01/10 03:17:03;;;;;;;10.52;5.25;;;15.80;44.70;;;;;;5094524;28;20020;-65
2022/01/10 03:19:30;;;;;;;8.85;4.93;;;15.70;44.60;;;;;;5093313;28;20036;-64
2022/01/10 03:21:55;;;;;;;10.77;4.50;;;15.70;44.80;;;;;;5093154;28;20020;-65
2022/01/10 03:24:21;;;;;;;8.23;4.43;;;15.70;44.90;;;;;;5094163;28;20048;-65
2022/01/10 03:26:48;;;;;;;9.20;5.03;;;15.70;44.90;;;;;;5094401;28;20012;-65
2022/01/10 03:29:13;;;;;;;9.02;5.03;;;15.70;44.80;;;;;;5094268;28;20023;-65
2022/01/10 03:31:40;;;;;;;7.53;4.63;;;15.70;44.90;;;;;;5093738;28;20020;-64
2022/01/10 03:34:10;;;;;;;7.53;4.90;;;15.60;44.90;;;;;;5093776;28;20381;-65
2022/01/10 03:36:36;;;;;;;8.65;4.82;;;15.60;44.90;;;;;;5093689;28;20016;-64
2022/01/10 03:39:02;;;;;;;9.32;5.03;;;15.60;45.10;;;;;;5092300;28;20398;-65
2022/01/10 03:41:28;;;;;;;10.07;4.80;;;15.50;45.10;;;;;;5093102;28;20008;-65
2022/01/10 03:43:54;;;;;;;10.48;4.28;;;15.50;45.20;;;;;;5093496;28;20058;-64
2022/01/10 03:46:20;;;;;;;9.00;4.75;;;15.50;45.30;;;;;;5093317;28;20087;-65
2022/01/10 03:48:47;;;;;;;11.73;5.13;;;15.40;45.30;;;;;;5093831;28;20021;-67
2022/01/10 03:51:13;;;;;;;10.77;5.20;;;15.50;45.30;;;;;;5093360;28;20012;-64
2022/01/10 03:53:40;;;;;;;7.63;4.85;;;15.40;45.30;;;;;;5093341;28;20101;-65
2022/01/10 03:56:06;;;;;;;7.38;4.32;;;15.40;45.30;;;;;;5093432;28;20020;-64
2022/01/10 03:58:32;;;;;;;8.02;4.88;;;15.40;45.40;;;;;;5093588;28;20027;-67
2022/01/10 04:01:01;;;;;;;9.57;4.53;;;15.40;45.40;;;;;;5093360;28;20012;-66
2022/01/10 04:03:26;;;;;;;9.32;4.90;;;15.40;45.50;;;;;;5093295;28;20012;-63
2022/01/10 04:05:52;;;;;;;8.63;4.60;;;15.30;45.50;;;;;;5093525;28;20081;-64
2022/01/10 04:08:18;;;;;;;7.82;4.75;;;15.30;45.60;;;;;;5092972;28;20044;-64
2022/01/10 04:10:44;;;;;;;8.70;4.57;;;15.30;45.60;;;;;;5093101;28;20028;-64
2022/01/10 04:13:11;;;;;;;13.15;4.53;;;15.40;45.40;;;;;;5093069;28;20020;-65
2022/01/10 04:15:36;;;;;;;9.23;4.60;;;15.40;45.40;;;;;;5093314;28;20008;-65
2022/01/10 04:18:02;;;;;;;8.35;4.63;;;15.40;45.30;;;;;;5092919;28;20031;-64
2022/01/10 04:20:28;;;;;;;8.88;4.40;;;15.50;45.30;;;;;;5093133;28;20086;-64
2022/01/10 04:22:54;;;;;;;10.32;4.93;;;15.50;45.20;;;;;;5093287;28;20020;-65
2022/01/10 04:25:21;;;;;;;9.10;4.85;;;15.60;45.10;;;;;;5093345;28;20024;-65
2022/01/10 04:27:46;;;;;;;9.90;5.05;;;15.60;45.00;;;;;;5093085;28;20383;-65
2022/01/10 04:30:13;;;;;;;8.60;4.72;;;15.70;44.90;;;;;;5092863;28;20024;-66
2022/01/10 04:32:42;;;;;;;6.53;4.28;;;15.70;44.60;;;;;;5093515;28;20081;-64
2022/01/10 04:35:08;;;;;;;7.88;4.65;;;15.90;44.40;;;;;;5093258;28;20040;-62
2022/01/10 04:37:33;;;;;;;7.50;4.30;;;15.90;44.10;;;;;;5092745;28;20110;-66
2022/01/10 04:39:59;;;;;;;6.78;4.53;;;15.90;44.10;;;;;;5091981;28;20111;-65
2022/01/10 04:42:25;;;;;;;8.52;4.97;;;16.10;44.00;;;;;;5092651;28;20015;-65
2022/01/10 04:44:51;;;;;;;7.72;4.60;;;16.10;43.80;;;;;;5091402;28;20069;-64
2022/01/10 04:47:17;;;;;;;9.32;4.78;;;16.20;43.70;;;;;;5091731;28;20522;-64
2022/01/10 04:52:28;;;;;;;8.07;4.47;;;16.30;43.30;;;;;;5093660;28;20093;-64
2022/01/10 04:54:54;;;;;;;7.95;4.32;;;16.40;43.10;;;;;;5096598;28;20028;-64
2022/01/10 04:57:20;;;;;;;7.78;4.45;;;16.50;43.00;;;;;;5095582;28;20363;-65
2022/01/10 04:59:47;;;;;;;6.65;4.38;;;16.60;42.80;;;;;;5095840;28;20055;-64
2022/01/10 05:02:13;;;;;;;8.50;4.53;;;16.70;42.70;;;;;;5095920;28;20115;-64
2022/01/10 05:04:39;;;;;;;12.60;4.95;;;16.70;42.40;;;;;;5097435;28;20016;-65
2022/01/10 05:07:05;;;;;;;6.25;4.15;;;16.80;42.20;;;;;;5095931;28;20012;-64
2022/01/10 05:09:31;;;;;;;8.02;4.15;;;16.90;42.10;;;;;;5096471;28;20043;-66
2022/01/10 05:11:58;;;;;;;12.57;4.47;;;17.00;41.90;;;;;;5096402;28;20024;-65
2022/01/10 05:14:24;;;;;;;6.45;4.40;;;17.10;41.80;;;;;;5097012;28;20055;-65
2022/01/10 05:16:50;;;;;;;9.25;5.18;;;17.10;41.60;;;;;;5096730;28;20020;-64
2022/01/10 05:19:15;;;;;;;6.95;3.90;;;17.20;41.50;;;;;;5096185;28;20398;-65
2022/01/10 05:21:42;;;;;;;6.13;4.00;;;17.30;41.60;;;;;;5096528;28;20069;-64
2022/01/10 05:24:08;;;;;;;7.55;4.28;;;17.30;41.10;;;;;;5096803;28;20475;-63
2022/01/10 05:26:34;;;;;;;9.10;4.38;;;17.40;41.00;;;;;;5096595;28;20012;-64
2022/01/10 05:29:01;;;;;;;6.75;3.97;;;17.50;40.90;;;;;;5096583;28;20009;-64
2022/01/10 05:31:33;;;;;;;8.38;4.20;;;17.50;40.80;;;;;;5096720;28;20016;-64
2022/01/10 05:33:59;;;;;;;7.22;4.10;;;17.60;40.60;;;;;;5096710;28;20016;-64
2022/01/10 05:36:25;;;;;;;8.07;4.25;;;17.70;40.50;;;;;;5096499;28;20012;-65
2022/01/10 05:38:52;;;;;;;7.95;4.70;;;17.80;40.40;;;;;;5096391;28;20028;-64
2022/01/10 05:41:20;;;;;;;6.53;3.83;;;17.80;40.20;;;;;;5096017;28;20374;-65
2022/01/10 05:43:46;;;;;;;6.85;4.68;;;17.90;40.10;;;;;;5096155;28;20095;-65
2022/01/10 05:46:15;;;;;;;6.95;4.28;;;17.90;40.00;;;;;;5094608;28;20442;-64
2022/01/10 05:48:46;;;;;;;8.23;4.03;;;18.00;39.80;;;;;;5096431;28;20067;-64
2022/01/10 05:51:12;;;;;;;8.82;4.53;;;18.10;39.70;;;;;;5096351;28;20078;-65
2022/01/10 05:53:37;;;;;;;7.28;4.35;;;18.10;39.60;;;;;;5096079;28;20369;-65
2022/01/10 05:56:04;;;;;;;7.03;4.25;;;18.20;39.50;;;;;;5096303;28;20058;-65
2022/01/10 05:58:31;;;;;;;7.60;4.13;;;18.20;39.30;;;;;;5095639;28;20107;-65
2022/01/10 06:00:57;;;;;;;8.10;4.93;;;18.30;39.20;;;;;;5096138;28;20004;-65
2022/01/10 06:03:23;;;;;;;11.77;4.88;;;18.40;39.10;;;;;;5095631;28;20451;-65
2022/01/10 06:05:49;;;;;;;7.82;4.20;;;18.40;39.00;;;;;;5095261;28;20012;-65
2022/01/10 06:08:15;;;;;;;7.28;4.53;;;18.50;38.90;;;;;;5095308;28;20064;-65
2022/01/10 06:10:41;;;;;;;6.88;4.38;;;18.50;39.30;;;;;;5095774;28;20374;-63
2022/01/10 06:13:07;;;;;;;6.78;4.15;;;18.60;38.70;;;;;;5095640;28;20008;-63
2022/01/10 06:15:33;;;;;;;5.78;4.07;;;18.60;38.60;;;;;;5095560;28;20146;-65
2022/01/10 06:17:59;;;;;;;6.32;4.03;;;18.70;38.50;;;;;;5095564;28;20008;-64
2022/01/10 06:20:26;;;;;;;6.85;4.10;;;18.70;38.40;;;;;;5094084;28;20018;-64
2022/01/10 06:22:52;;;;;;;8.82;4.20;;;18.80;38.40;;;;;;5095620;28;20039;-64
2022/01/10 06:25:20;;;;;;;5.32;3.85;;;18.80;38.20;;;;;;5095570;28;20015;-63
2022/01/10 06:27:46;;;;;;;6.50;3.95;;;18.80;38.10;;;;;;5097003;28;20016;-63
2022/01/10 06:30:12;;;;;;;7.30;4.30;;;18.90;38.00;;;;;;5098393;28;20394;-64
2022/01/10 06:32:37;;;;;;;7.25;4.40;;;19.00;37.90;;;;;;5097944;28;20016;-65
2022/01/10 06:35:03;;;;;;;6.93;4.32;;;19.00;37.80;;;;;;5097303;28;20013;-63
2022/01/10 06:37:29;;;;;;;6.15;4.07;;;19.00;37.70;;;;;;5098534;28;20024;-63
2022/01/10 06:39:55;;;;;;;6.43;3.90;;;19.10;37.70;;;;;;5098543;28;20519;-63
2022/01/10 06:42:21;;;;;;;6.78;4.03;;;19.10;37.60;;;;;;5097879;28;20008;-63
2022/01/10 06:44:46;;;;;;;7.82;3.80;;;19.20;37.50;;;;;;5098152;28;20023;-63
2022/01/10 06:47:12;;;;;;;8.65;4.22;;;19.20;37.40;;;;;;5097346;28;20024;-64
2022/01/10 06:49:38;;;;;;;6.32;3.75;;;19.30;37.40;;;;;;5097428;28;20027;-63
2022/01/10 06:52:04;;;;;;;6.72;3.72;;;19.30;37.30;;;;;;5098030;28;20024;-64
2022/01/10 06:54:30;;;;;;;10.45;4.50;;;19.30;37.20;;;;;;5097202;28;20467;-64
2022/01/10 06:56:59;;;;;;;8.25;4.38;;;19.30;37.10;;;;;;5097231;28;20081;-64
2022/01/10 06:59:25;;;;;;;9.55;4.70;;;19.40;37.00;;;;;;5096450;28;20032;-63
2022/01/10 07:01:53;;;;;;;8.48;3.92;;;19.40;37.00;;;;;;5094948;28;20486;-63
2022/01/10 07:04:18;;;;;;;5.88;3.90;;;19.50;36.90;;;;;;5095129;28;20012;-63
2022/01/10 07:06:45;;;;;;;8.27;4.07;;;19.50;36.80;;;;;;5093703;28;20031;-64
2022/01/10 07:09:10;;;;;;;7.28;4.38;;;19.50;36.70;;;;;;5094402;28;20082;-65
2022/01/10 07:11:36;;;;;;;7.10;3.88;;;19.50;36.80;;;;;;5093546;28;20054;-65
2022/01/10 07:14:03;;;;;;;9.70;4.70;;;19.50;36.90;;;;;;5092667;28;20572;-65
2022/01/10 07:16:29;;;;;;;11.82;4.35;;;19.50;36.90;;;;;;5093128;28;20050;-62
2022/01/10 07:18:55;;;;;;;15.45;5.28;;;19.50;37.00;;;;;;5093444;28;20052;-61
2022/01/10 07:21:21;;;;;;;19.38;5.78;;;19.30;37.20;;;;;;5074044;28;20028;-61
2022/01/10 07:23:48;;;;;;;11.15;5.63;;;19.10;37.50;;;;;;5092871;28;20081;-65
2022/01/10 07:26:14;;;;;;;12.27;6.13;;;18.80;38.70;;;;;;5075816;28;20096;-63
2022/01/10 07:28:40;;;;;;;12.13;6.63;;;18.40;38.90;;;;;;5093507;28;20066;-67
2022/01/10 07:31:06;;;;;;;16.90;6.95;;;17.90;39.50;;;;;;5093163;28;20343;-65
2022/01/10 07:33:37;;;;;;;10.77;6.70;;;17.40;39.40;;;;;;5093124;28;20020;-64
2022/01/10 07:36:03;;;;;;;12.00;7.25;;;17.10;40.10;;;;;;5091551;28;20050;-64
2022/01/10 07:38:35;;;;;;;10.30;7.85;;;16.80;40.10;;;;;;5091550;28;20487;-64
2022/01/10 07:41:08;;;;;;;11.35;6.38;;;16.40;40.20;;;;;;5092794;28;20069;-64
2022/01/10 07:43:34;;;;;;;11.43;8.00;;;16.30;40.40;;;;;;5092640;28;20121;-64
2022/01/10 07:46:00;;;;;;;9.40;7.13;;;16.20;40.80;;;;;;5091592;28;20024;-61
2022/01/10 07:48:29;;;;;;;10.45;7.45;;;16.00;40.60;;;;;;5092732;28;20034;-62
2022/01/10 07:50:56;;;;;;;9.30;6.47;;;15.90;41.60;;;;;;5091156;28;20016;-62
2022/01/10 07:53:23;;;;;;;9.55;7.63;;;15.80;41.00;;;;;;5092221;28;20027;-60
2022/01/10 07:55:50;;;;;;;10.98;7.55;;;15.70;40.90;;;;;;5092510;28;20490;-62
2022/01/10 07:58:16;;;;;;;11.40;7.28;;;15.70;40.80;;;;;;5091716;28;20439;-62
2022/01/10 08:00:42;;;;;;;11.18;7.32;;;15.60;40.60;;;;;;5092580;28;20087;-65
2022/01/10 08:03:08;;;;;;;9.25;6.70;;;14.90;42.10;;;;;;5090879;28;20016;-63
2022/01/10 08:05:34;;;;;;;8.43;7.43;;;15.10;42.00;;;;;;5074423;28;20035;-65
2022/01/10 08:08:02;;;;;;;14.10;7.90;;;15.00;42.10;;;;;;5092660;28;20064;-63
2022/01/10 08:10:28;;;;;;;9.00;6.90;;;14.90;42.30;;;;;;5090936;28;20431;-63
2022/01/10 08:12:53;;;;;;;15.60;7.07;;;14.70;41.50;;;;;;5092301;28;20082;-62
2022/01/10 08:15:20;;;;;;;16.70;7.25;;;13.70;44.30;;;;;;5092493;28;20142;-61
2022/01/10 08:17:46;;;;;;;14.60;7.93;;;13.90;44.60;;;;;;5092914;28;20016;-62
2022/01/10 08:20:13;;;;;;;11.52;7.18;;;13.50;43.70;;;;;;5091184;28;20030;-61
2022/01/10 08:22:38;;;;;;;12.15;7.40;;;13.10;44.30;;;;;;5074458;28;20019;-61
2022/01/10 08:25:07;;;;;;;9.48;7.50;;;12.20;46.50;;;;;;5091451;28;20020;-61
2022/01/10 08:27:34;;;;;;;9.70;7.50;;;12.20;45.70;;;;;;5094243;28;20076;-51
2022/01/10 08:30:01;;;;;;;9.48;7.40;;;10.60;48.00;;;;;;5095028;28;20096;-47
2022/01/10 08:32:27;;;;;;;10.23;6.75;;;10.60;51.00;;;;;;5095528;28;20012;-49
2022/01/10 08:34:53;;;;;;;12.35;7.55;;;11.00;50.70;;;;;;5096788;28;20599;-49
2022/01/10 08:37:19;;;;;;;9.88;7.85;;;11.60;48.50;;;;;;5096493;28;20016;-50
2022/01/10 08:39:49;;;;;;;9.75;7.55;;;12.20;47.30;;;;;;5096762;28;20378;-52
2022/01/10 08:42:16;;;;;;;8.73;7.63;;;12.60;46.50;;;;;;5096028;28;20054;-52
2022/01/10 08:44:42;;;;;;;9.75;7.53;;;11.90;47.30;;;;;;5096200;28;20012;-51
2022/01/10 08:47:08;;;;;;;13.63;7.90;;;12.20;46.80;;;;;;5096371;28;20004;-51
2022/01/10 08:49:33;;;;;;;8.43;7.20;;;12.80;45.50;;;;;;5094998;28;20430;-52
2022/01/10 08:51:59;;;;;;;12.23;7.88;;;12.60;45.40;;;;;;5096531;28;20035;-52
2022/01/10 08:54:25;;;;;;;11.50;7.85;;;12.50;45.30;;;;;;5094525;28;20025;-54
2022/01/10 08:56:52;;;;;;;10.23;8.10;;;11.40;48.10;;;;;;5096049;28;20074;-53
2022/01/10 08:59:18;;;;;;;10.15;7.72;;;11.40;48.00;;;;;;5095754;28;20016;-53
2022/01/10 09:01:46;;;;;;;10.13;6.97;;;11.10;47.90;;;;;;5096026;28;20022;-51
2022/01/10 09:04:16;;;;;;;9.10;6.50;;;11.90;47.80;;;;;;5098119;28;20074;-53
2022/01/10 09:06:49;;;;;;;8.18;6.82;;;13.00;45.20;;;;;;5098254;28;20012;-54
2022/01/10 09:09:15;;;;;;;8.07;6.15;;;14.00;43.00;;;;;;5097937;28;20040;-55
2022/01/10 09:11:41;;;;;;;9.05;6.45;;;14.50;41.60;;;;;;5097191;28;20016;-58
2022/01/10 09:14:07;;;;;;;11.50;6.70;;;15.00;40.70;;;;;;5096893;28;20012;-57
2022/01/10 09:16:32;;;;;;;6.80;5.95;;;15.30;39.70;;;;;;5077299;28;20091;-58
2022/01/10 09:18:58;;;;;;;10.45;6.00;;;15.60;39.20;;;;;;5093846;28;20383;-57
2022/01/10 09:21:24;;;;;;;7.53;6.00;;;15.90;38.70;;;;;;5094063;28;20010;-55
2022/01/10 09:23:50;;;;;;;8.50;6.32;;;15.60;39.20;;;;;;5094157;28;20009;-56
2022/01/10 09:26:17;;;;;;;10.90;7.20;;;15.30;39.60;;;;;;5095381;28;20443;-57
2022/01/10 09:28:43;;;;;;;9.60;7.10;;;14.80;40.90;;;;;;5095780;28;20051;-56
2022/01/10 09:31:12;;;;;;;10.07;6.82;;;14.70;41.40;;;;;;5095761;28;20042;-57
2022/01/10 09:33:40;;;;;;;11.43;7.43;;;14.50;42.10;;;;;;5095510;28;20028;-56
2022/01/10 09:36:05;;;;;;;12.85;8.57;;;14.10;42.30;;;;;;5093618;28;20454;-56
2022/01/10 09:38:32;;;;;;;10.95;8.27;;;14.20;42.40;;;;;;5095662;28;20051;-55
2022/01/10 09:40:58;;;;;;;13.95;8.25;;;14.20;42.20;;;;;;5093698;28;20047;-55
2022/01/10 09:43:26;;;;;;;12.18;8.65;;;14.00;43.00;;;;;;5095828;28;20017;-56
2022/01/10 09:45:53;;;;;;;17.05;8.45;;;14.20;42.70;;;;;;5094927;28;20017;-57
2022/01/10 09:48:19;;;;;;;12.25;8.20;;;14.40;44.00;;;;;;5095452;28;20191;-57
2022/01/10 09:50:46;;;;;;;10.48;8.07;;;14.50;42.20;;;;;;5094992;28;20066;-57
2022/01/10 09:53:14;;;;;;;12.02;8.38;;;13.30;44.10;;;;;;5094815;28;20049;-56
2022/01/10 09:55:40;;;;;;;14.25;8.23;;;12.40;45.90;;;;;;5094790;28;20064;-56
2022/01/10 09:58:07;;;;;;;12.45;8.00;;;13.00;46.30;;;;;;5094845;28;20051;-54
2022/01/10 10:00:32;;;;;;;11.95;8.65;;;13.00;46.10;;;;;;5094463;28;20095;-55
2022/01/10 10:02:58;;;;;;;13.68;7.38;;;12.80;45.90;;;;;;5093770;28;20416;-62
2022/01/10 10:05:24;;;;;;;11.70;8.25;;;13.40;45.40;;;;;;5094655;28;20378;-57
2022/01/10 10:07:51;;;;;;;15.98;7.88;;;12.80;45.10;;;;;;5093932;28;20024;-59
2022/01/10 10:10:17;;;;;;;11.52;7.07;;;13.50;45.60;;;;;;5095628;27;20031;-60
2022/01/10 10:12:49;;;;;;;12.85;7.47;;;13.80;44.30;;;;;;5094402;28;20016;-58
2022/01/10 10:15:21;;;;;;;15.10;7.40;;;13.90;44.00;;;;;;5094531;28;20034;-59
2022/01/10 10:17:47;;;;;;;15.57;7.50;;;14.10;43.50;;;;;;5093904;28;20058;-60
2022/01/10 10:20:17;;;;;;;12.38;6.97;;;14.40;43.40;;;;;;5094266;28;20096;-59
2022/01/10 10:22:45;;;;;;;10.27;7.93;;;14.50;42.70;;;;;;5094532;28;20016;-58
2022/01/10 10:25:12;;;;;;;9.98;7.28;;;14.40;42.60;;;;;;5092661;28;20012;-58
2022/01/10 10:27:39;;;;;;;11.68;7.55;;;14.10;43.20;;;;;;5093880;28;20016;-59
2022/01/10 10:30:27;;;;;;;8.88;7.22;;;13.30;43.60;;;;;;5093705;28;20032;-57
2022/01/10 10:33:10;;;;;;;8.45;6.90;;;12.90;45.80;;;;;;5092339;28;20439;-57
2022/01/10 10:35:36;;;;;;;8.20;6.75;;;13.10;45.50;;;;;;5093682;28;20332;-59
2022/01/10 10:38:02;;;;;;;9.02;6.30;;;12.40;45.30;;;;;;5091775;28;20106;-58
2022/01/10 10:40:29;;;;;;;10.27;6.22;;;12.50;46.30;;;;;;5093388;28;20394;-57
2022/01/10 10:42:56;;;;;;;8.68;6.70;;;12.50;45.40;;;;;;5092077;28;20055;-58
2022/01/10 10:45:25;;;;;;;8.80;6.57;;;11.90;46.80;;;;;;5093343;28;20137;-58
2022/01/10 10:47:51;;;;;;;8.35;6.20;;;11.30;47.40;;;;;;5093359;28;20088;-58
2022/01/10 10:50:17;;;;;;;8.85;6.32;;;11.10;48.10;;;;;;5092932;28;20490;-60
2022/01/10 10:52:42;;;;;;;8.13;6.13;;;11.30;48.60;;;;;;5093377;28;20032;-59
2022/01/10 10:55:13;;;;;;;11.35;6.63;;;11.40;48.60;;;;;;5093190;28;20026;-57
2022/01/10 10:57:40;;;;;;;9.35;5.90;;;11.50;48.50;;;;;;5092696;28;20081;-54
2022/01/10 11:00:12;;;;;;;7.25;5.22;;;12.30;47.50;;;;;;5091873;28;20016;-56
2022/01/10 11:02:38;;;;;;;8.23;5.18;;;13.20;45.30;;;;;;5093613;28;20560;-56
2022/01/10 11:05:06;;;;;;;9.48;4.88;;;13.70;43.70;;;;;;5093867;28;20483;-54
2022/01/10 11:07:33;;;;;;;6.35;4.78;;;14.40;42.30;;;;;;5094966;28;20051;-57
2022/01/10 11:09:59;;;;;;;8.10;4.68;;;14.90;41.10;;;;;;5094463;28;20059;-56
2022/01/10 11:12:25;;;;;;;7.68;4.60;;;15.30;40.30;;;;;;5094509;28;20043;-58
2022/01/10 11:14:52;;;;;;;7.85;5.53;;;15.10;40.30;;;;;;5093048;28;20081;-58
2022/01/10 11:17:21;;;;;;;7.57;5.32;;;14.20;41.30;;;;;;5094180;28;20042;-59
2022/01/10 11:20:09;;;;;;;8.65;5.90;;;14.30;41.80;;;;;;5093190;28;20151;-58
2022/01/10 11:22:38;;;;;;;7.38;5.50;;;14.60;40.90;;;;;;5092876;28;20065;-58
2022/01/10 11:25:33;;;;;;;7.13;5.05;;;15.00;40.30;;;;;;5093162;28;20028;-57
2022/01/10 11:28:06;;;;;;;8.38;5.47;;;15.40;39.80;;;;;;5090386;28;20183;-57
2022/01/10 11:30:45;;;;;;;6.10;5.05;;;15.50;39.30;;;;;;5091463;28;20024;-58
2022/01/10 11:33:19;;;;;;;7.53;5.35;;;15.90;38.70;;;;;;5092879;28;20117;-58
2022/01/10 11:35:45;;;;;;;7.57;5.15;;;16.10;38.20;;;;;;5092697;28;20466;-58
2022/01/10 11:38:17;;;;;;;8.93;5.25;;;16.30;37.80;;;;;;5092631;28;20072;-59
2022/01/10 11:40:43;;;;;;;7.47;5.28;;;16.50;37.50;;;;;;5092672;28;20024;-59
2022/01/10 11:43:08;;;;;;;8.32;5.65;;;16.60;37.20;;;;;;5092739;28;20012;-59
2022/01/10 11:45:41;;;;;;;10.85;6.53;;;16.70;37.00;;;;;;5091829;28;20351;-55
2022/01/10 11:48:09;;;;;;;11.27;7.22;;;16.40;36.70;;;;;;5092224;28;20009;-59
2022/01/10 11:50:35;;;;;;;16.70;8.82;;;16.10;38.10;;;;;;5092494;28;20028;-58
2022/01/10 11:53:01;;;;;;;13.63;8.98;;;15.70;39.60;;;;;;5092673;28;20016;-58
2022/01/10 11:55:51;;;;;;;13.93;9.48;;;15.40;40.40;;;;;;5092616;28;20490;-56
2022/01/10 11:58:19;;;;;;;16.33;10.38;;;15.20;40.70;;;;;;5092750;28;20016;-57
2022/01/10 12:00:44;;;;;;;13.75;8.50;;;15.00;41.10;;;;;;5092284;28;20020;-58
2022/01/10 12:03:10;;;;;;;15.55;8.88;;;15.10;41.90;;;;;;5092211;28;20016;-59
2022/01/10 12:05:36;;;;;;;14.00;8.55;;;15.40;41.90;;;;;;5092348;28;20539;-60
2022/01/10 12:08:05;;;;;;;13.80;8.73;;;15.70;41.60;;;;;;5091890;28;20375;-60
2022/01/10 12:10:31;;;;;;;11.68;7.70;;;15.90;41.20;;;;;;5092467;28;20551;-59
2022/01/10 12:13:06;;;;;;;14.38;8.23;;;16.10;40.80;;;;;;5092272;28;20077;-59
2022/01/10 12:15:34;;;;;;;11.23;8.85;;;16.30;40.70;;;;;;5091963;28;20100;-58
2022/01/10 12:18:03;;;;;;;12.10;8.88;;;16.40;41.00;;;;;;5092003;28;20019;-58
2022/01/10 12:20:29;;;;;;;13.20;8.38;;;16.50;40.10;;;;;;5090335;28;20032;-59
2022/01/10 12:22:55;;;;;;;12.80;7.78;;;16.60;40.00;;;;;;5092187;28;20024;-58
2022/01/10 12:25:21;;;;;;;10.43;7.57;;;16.60;39.90;;;;;;5091913;28;20012;-59
2022/01/10 12:27:52;;;;;;;14.13;8.30;;;16.70;39.90;;;;;;5091925;28;20021;-59
2022/01/10 12:30:18;;;;;;;15.05;8.77;;;16.70;40.20;;;;;;5092117;28;20448;-60
2022/01/10 12:32:45;;;;;;;10.68;7.75;;;16.80;39.50;;;;;;5092249;28;20027;-60
2022/01/10 12:35:11;;;;;;;11.25;8.10;;;16.90;39.50;;;;;;5091619;28;20046;-60
2022/01/10 12:37:37;;;;;;;10.20;8.50;;;16.90;39.30;;;;;;5090952;28;20125;-59
2022/01/10 12:40:04;;;;;;;76.22;13.50;;;16.90;39.20;;;;;;5089647;28;20107;-60
2022/01/10 12:42:30;;;;;;;35.15;11.73;;;16.90;39.50;;;;;;5090876;28;20024;-60
2022/01/10 12:44:55;;;;;;;28.35;10.05;;;16.60;39.90;;;;;;5090387;28;20022;-58
2022/01/10 12:47:30;;;;;;;23.02;8.75;;;16.50;40.30;;;;;;5090091;28;20051;-58
2022/01/10 12:49:58;;;;;;;23.95;8.73;;;17.00;40.20;;;;;;5090481;28;20032;-60
2022/01/10 12:52:24;;;;;;;13.38;7.75;;;17.40;39.50;;;;;;5090285;28;20036;-60
2022/01/10 12:54:51;;;;;;;16.50;8.20;;;17.70;39.10;;;;;;5091708;28;20385;-59